createdAt,value
2022-10-11T00:01:20.623Z,100944.39
2022-10-11T00:03:54.685Z,100940.85
2022-10-11T00:06:26.364Z,100943.09
2022-10-11T00:08:58.008Z,100950.91
2022-10-11T00:11:29.864Z,100953.33
2022-10-11T00:14:03.041Z,100958.14
2022-10-11T00:16:34.930Z,100958.38
2022-10-11T00:19:09.761Z,100966.65
2022-10-11T00:21:41.565Z,100969.21
2022-10-11T00:24:16.994Z,100974.58
2022-10-11T00:26:54.900Z,100976.77
2022-10-11T00:29:27.490Z,100983.89
2022-10-11T00:31:59.038Z,100986.13
2022-10-11T00:34:32.272Z,100989.45
2022-10-11T00:37:04.037Z,100994.23
2022-10-11T00:39:35.678Z,100993.50
2022-10-11T00:42:12.340Z,100990.52
2022-10-11T00:44:49.314Z,100990.67
2022-10-11T00:47:23.248Z,100991.77
2022-10-11T00:49:58.398Z,100993.47
2022-10-11T00:52:34.018Z,100991.27
2022-10-11T00:55:14.556Z,100992.70
2022-10-11T00:57:50.380Z,100993.29
2022-10-11T01:00:25.859Z,100997.02
2022-10-11T01:02:57.738Z,100997.49
2022-10-11T01:05:30.427Z,101000.45
2022-10-11T01:08:03.589Z,101007.48
2022-10-11T01:10:38.637Z,101010.77
2022-10-11T01:13:22.247Z,101013.63
2022-10-11T01:16:02.005Z,101022.02
2022-10-11T01:18:43.240Z,101023.25
2022-10-11T01:21:26.918Z,101027.92
2022-10-11T01:24:41.030Z,101023.95
2022-10-11T01:27:30.657Z,101031.11
2022-10-11T01:30:20.791Z,101036.83
2022-10-11T01:33:03.462Z,101045.16
2022-10-11T01:35:42.005Z,101048.35
2022-10-11T01:38:18.632Z,101045.89
2022-10-11T01:40:53.959Z,101052.15
2022-10-11T01:43:28.199Z,101055.23
2022-10-11T01:46:01.812Z,101058.84
2022-10-11T01:48:33.624Z,101056.10
2022-10-11T01:51:06.053Z,101059.79
2022-10-11T01:54:07.597Z,101063.48
2022-10-11T01:56:53.988Z,101062.42
2022-10-11T01:59:43.927Z,101064.73
2022-10-11T02:02:33.629Z,101071.22
2022-10-11T02:05:14.446Z,101078.63
2022-10-11T02:07:50.560Z,101077.83
2022-10-11T02:10:34.921Z,101083.23
2022-10-11T02:13:10.680Z,101084.48
2022-10-11T02:15:46.305Z,101089.35
2022-10-11T02:18:20.698Z,101093.54
2022-10-11T02:20:55.645Z,101097.80
2022-10-11T02:23:33.786Z,101098.66
2022-10-11T02:26:08.290Z,101107.83
2022-10-11T02:28:44.374Z,101110.61
2022-10-11T02:31:21.299Z,101115.05
2022-10-11T02:34:00.094Z,101115.54
2022-10-11T02:36:36.420Z,101120.11
2022-10-11T02:39:13.522Z,101124.61
2022-10-11T02:41:49.185Z,101125.75
2022-10-11T02:44:27.974Z,101130.13
2022-10-11T02:47:01.331Z,101131.29
2022-10-11T02:49:34.375Z,101133.41
2022-10-11T02:52:08.911Z,101135.06
2022-10-11T02:54:40.439Z,101142.56
2022-10-11T02:57:12.034Z,101150.95
2022-10-11T02:59:43.586Z,101156.40
2022-10-11T03:02:17.803Z,101154.50
2022-10-11T03:04:49.434Z,101159.00
2022-10-11T03:07:21.895Z,101161.70
2022-10-11T03:09:53.506Z,101162.13
2022-10-11T03:12:26.725Z,101168.72
2022-10-11T03:14:58.410Z,101166.37
2022-10-11T03:17:37.701Z,101170.25
2022-10-11T03:20:12.340Z,101180.25
2022-10-11T03:22:44.766Z,101177.33
2022-10-11T03:25:16.464Z,101186.96
2022-10-11T03:27:48.122Z,101189.98
2022-10-11T03:30:20.241Z,101194.23
2022-10-11T03:32:54.195Z,101199.30
2022-10-11T03:35:25.975Z,101201.11
2022-10-11T03:37:58.382Z,101206.02
2022-10-11T03:40:30.155Z,101208.42
2022-10-11T03:43:03.508Z,101213.54
2022-10-11T03:45:35.095Z,101218.02
2022-10-11T03:48:08.323Z,101217.51
2022-10-11T03:50:40.282Z,101220.93
2022-10-11T03:53:13.733Z,101226.41
2022-10-11T03:55:45.556Z,101230.44
2022-10-11T03:58:17.974Z,101234.29
2022-10-11T04:00:49.945Z,101242.90
2022-10-11T04:03:22.662Z,101246.27
2022-10-11T04:05:54.277Z,101249.48
2022-10-11T04:08:26.922Z,101251.83
2022-10-11T04:10:58.484Z,101253.63
2022-10-11T04:13:30.258Z,101258.44
2022-10-11T04:16:02.043Z,101261.14
2022-10-11T04:18:34.062Z,101262.11
2022-10-11T04:21:06.034Z,101266.00
2022-10-11T04:23:38.368Z,101270.36
2022-10-11T04:26:10.311Z,101271.32
2022-10-11T04:28:41.969Z,101275.23
2022-10-11T04:31:13.541Z,101276.83
2022-10-11T04:33:45.891Z,101278.90
2022-10-11T04:36:17.431Z,101283.83
2022-10-11T04:38:48.990Z,101287.11
2022-10-11T04:41:20.505Z,101289.02
2022-10-11T04:43:52.234Z,101293.13
2022-10-11T04:46:23.817Z,101292.67
2022-10-11T04:48:56.249Z,101296.20
2022-10-11T04:51:28.876Z,101300.84
2022-10-11T04:54:01.659Z,101303.73
2022-10-11T04:56:33.375Z,101303.63
2022-10-11T04:59:04.951Z,101306.05
2022-10-11T05:01:36.650Z,101310.41
2022-10-11T05:04:08.497Z,101313.36
2022-10-11T05:06:40.101Z,101317.39
2022-10-11T05:09:12.165Z,101320.20
2022-10-11T05:11:43.773Z,101326.94
2022-10-11T05:14:15.352Z,101331.10
2022-10-11T05:16:46.975Z,101332.79
2022-10-11T05:19:18.557Z,101338.84
2022-10-11T05:21:50.130Z,101344.45
2022-10-11T05:24:21.993Z,101349.41
2022-10-11T05:26:53.563Z,101352.27
2022-10-11T05:29:25.157Z,101360.84
2022-10-11T05:31:56.742Z,101367.08
2022-10-11T05:34:28.462Z,101369.02
2022-10-11T05:37:00.111Z,101374.76
2022-10-11T05:39:32.442Z,101378.58
2022-10-11T05:42:08.920Z,101382.29
2022-10-11T05:44:41.810Z,101385.63
2022-10-11T05:47:14.389Z,101386.02
2022-10-11T05:49:46.094Z,101390.16
2022-10-11T05:52:21.602Z,101397.83
2022-10-11T05:54:54.081Z,101401.24
2022-10-11T05:57:25.685Z,101406.67
2022-10-11T05:59:57.721Z,101409.80
2022-10-11T06:02:29.434Z,101413.48
2022-10-11T06:05:01.391Z,101418.86
2022-10-11T06:08:02.471Z,101423.23
2022-10-11T06:10:35.322Z,101427.54
2022-10-11T06:13:07.917Z,101432.20
2022-10-11T06:15:41.295Z,101439.10
2022-10-11T06:18:12.803Z,101442.06
2022-10-11T06:20:45.162Z,101445.70
2022-10-11T06:23:16.839Z,101449.03
2022-10-11T06:25:58.714Z,101454.70
2022-10-11T06:28:30.945Z,101458.35
2022-10-11T06:31:05.198Z,101462.44
2022-10-11T06:33:39.661Z,101463.59
2022-10-11T06:36:15.223Z,101468.82
2022-10-11T06:38:46.868Z,101467.04
2022-10-11T06:41:22.157Z,101472.74
2022-10-11T06:43:54.303Z,101477.23
2022-10-11T06:46:28.027Z,101481.84
2022-10-11T06:48:59.898Z,101486.45
2022-10-11T06:51:33.464Z,101491.46
2022-10-11T06:54:05.482Z,101498.24
2022-10-11T06:56:37.214Z,101500.02
2022-10-11T06:59:09.743Z,101501.13
2022-10-11T07:01:44.863Z,101505.79
2022-10-11T07:04:23.452Z,101509.83
2022-10-11T07:06:55.145Z,101511.06
2022-10-11T07:09:26.933Z,101511.02
2022-10-11T07:12:05.211Z,101514.08
2022-10-11T07:14:36.899Z,101517.09
2022-10-11T07:17:14.040Z,101520.50
2022-10-11T07:19:45.677Z,101524.70
2022-10-11T07:22:18.222Z,101525.66
2022-10-11T07:24:49.828Z,101530.03
2022-10-11T07:27:22.529Z,101533.71
2022-10-11T07:29:54.061Z,101536.09
2022-10-11T07:32:25.703Z,101537.36
2022-10-11T07:34:57.626Z,101542.70
2022-10-11T07:37:29.725Z,101545.23
2022-10-11T07:40:01.404Z,101549.05
2022-10-11T07:42:34.282Z,101552.04
2022-10-11T07:45:06.882Z,101554.33
2022-10-11T07:47:38.474Z,101555.73
2022-10-11T07:50:11.705Z,101554.41
2022-10-11T07:52:44.358Z,101562.04
2022-10-11T07:55:16.055Z,101564.27
2022-10-11T07:57:47.674Z,101565.06
2022-10-11T08:00:20.024Z,101568.37
2022-10-11T08:02:53.358Z,101576.56
2022-10-11T08:05:24.920Z,101577.52
2022-10-11T08:07:56.924Z,101582.30
2022-10-11T08:10:29.073Z,101582.94
2022-10-11T08:13:04.394Z,101583.34
2022-10-11T08:18:54.539Z,101585.64
2022-10-11T08:21:26.902Z,101586.08
2022-10-11T08:23:59.492Z,101588.88
2022-10-11T08:26:31.240Z,101584.98
2022-10-11T08:29:04.085Z,101586.05
2022-10-11T08:31:36.969Z,101588.33
2022-10-11T08:34:08.682Z,101586.33
2022-10-11T08:36:40.540Z,101588.85
2022-10-11T08:39:13.191Z,101592.09
2022-10-11T08:41:49.554Z,101589.41
2022-10-11T08:45:05.388Z,101597.81
2022-10-11T08:47:37.740Z,101595.62
2022-10-11T08:50:24.345Z,101595.55
2022-10-11T08:53:00.871Z,101603.58
2022-10-11T08:55:40.663Z,101598.77
2022-10-11T08:58:16.636Z,101596.15
2022-10-11T09:00:54.411Z,101603.93
2022-10-11T09:03:36.270Z,101606.31
2022-10-11T09:06:19.827Z,101611.80
2022-10-11T09:09:04.250Z,101609.61
2022-10-11T09:11:49.805Z,101610.77
2022-10-11T09:14:46.363Z,101609.45
2022-10-11T09:17:30.298Z,101609.07
2022-10-11T09:20:23.790Z,101606.55
2022-10-11T09:23:01.620Z,101613.13
2022-10-11T09:25:38.233Z,101611.23
2022-10-11T09:28:18.762Z,101614.70
2022-10-11T09:31:00.760Z,101614.91
2022-10-11T09:33:36.593Z,101615.92
2022-10-11T09:36:20.197Z,101620.77
2022-10-11T09:39:06.354Z,101620.65
2022-10-11T09:41:44.372Z,101620.74
2022-10-11T09:44:23.098Z,101617.77
2022-10-11T09:46:56.954Z,101620.99
2022-10-11T09:49:34.483Z,101620.28
2022-10-11T09:52:08.877Z,101617.14
2022-10-11T09:54:47.732Z,101618.90
2022-10-11T09:57:38.998Z,101617.56
2022-10-11T10:00:31.164Z,101617.43
2022-10-11T10:03:05.410Z,101619.76
2022-10-11T10:05:38.749Z,101619.09
2022-10-11T10:08:25.358Z,101620.77
2022-10-11T10:11:05.661Z,101625.20
2022-10-11T10:13:45.130Z,101622.23
2022-10-11T10:16:27.001Z,101620.25
2022-10-11T10:19:01.432Z,101626.10
2022-10-11T10:21:36.468Z,101630.29
2022-10-11T10:24:23.320Z,101632.27
2022-10-11T10:27:18.289Z,101630.05
2022-10-11T10:30:13.334Z,101630.84
2022-10-11T10:32:54.279Z,101636.86
2022-10-11T10:35:36.255Z,101635.31
2022-10-11T10:38:26.231Z,101633.27
2022-10-11T10:41:02.626Z,101633.49
2022-10-11T10:43:37.698Z,101632.86
2022-10-11T10:46:30.991Z,101633.19
2022-10-11T10:52:19.813Z,101637.70
2022-10-11T10:54:57.787Z,101636.44
2022-10-11T10:57:38.148Z,101632.58
2022-10-11T11:00:22.870Z,101632.98
2022-10-11T11:03:01.387Z,101633.47
2022-10-11T11:05:46.757Z,101626.05
2022-10-11T11:08:40.531Z,101624.14
2022-10-11T11:11:33.756Z,101626.40
2022-10-11T11:14:13.045Z,101630.83
2022-10-11T11:16:51.350Z,101637.03
2022-10-11T11:19:37.258Z,101637.21
2022-10-11T11:22:17.334Z,101635.68
2022-10-11T11:24:58.562Z,101633.04
2022-10-11T11:27:48.498Z,101634.29
2022-10-11T11:30:31.239Z,101632.95
2022-10-11T11:33:12.111Z,101631.86
2022-10-11T11:35:46.951Z,101635.79
2022-10-11T11:38:28.646Z,101635.48
2022-10-11T11:45:24.289Z,101635.66
2022-10-11T11:48:02.525Z,101645.27
2022-10-11T11:50:41.859Z,101645.41
2022-10-11T11:53:19.353Z,101651.36
2022-10-11T11:55:57.119Z,101656.09
2022-10-11T11:58:37.067Z,101654.54
2022-10-11T12:01:19.586Z,101654.59
2022-10-11T12:04:08.677Z,101654.08
2022-10-11T12:06:58.152Z,101652.52
2022-10-11T12:09:36.860Z,101650.25
2022-10-11T12:12:39.438Z,101650.41
2022-10-11T12:15:25.031Z,101648.08
2022-10-11T12:18:15.432Z,101650.17
2022-10-11T12:21:02.108Z,101646.03
2022-10-11T12:23:44.055Z,101648.85
2022-10-11T12:26:45.152Z,101645.25
2022-10-11T12:29:34.893Z,101646.16
2022-10-11T12:32:53.293Z,101645.67
2022-10-11T12:35:58.056Z,101645.14
2022-10-11T12:38:31.846Z,101643.38
2022-10-11T12:41:40.032Z,101644.04
2022-10-11T12:44:23.253Z,101641.54
2022-10-11T12:47:19.283Z,101642.13
2022-10-11T12:50:03.836Z,101640.28
2022-10-11T12:52:51.160Z,101634.90
2022-10-11T12:55:39.299Z,101633.70
2022-10-11T12:58:26.840Z,101635.96
2022-10-11T13:01:23.587Z,101637.52
2022-10-11T13:04:01.772Z,101632.51
2022-10-11T13:06:35.636Z,101635.00
2022-10-11T13:09:18.202Z,101634.16
2022-10-11T13:11:53.521Z,101632.50
2022-10-11T13:14:28.206Z,101634.39
2022-10-11T13:17:16.391Z,101635.63
2022-10-11T13:19:52.198Z,101634.65
2022-10-11T13:22:25.805Z,101632.42
2022-10-11T13:25:00.212Z,101635.22
2022-10-11T13:27:31.995Z,101635.14
2022-10-11T13:30:15.497Z,101635.21
2022-10-11T13:32:54.808Z,101633.02
2022-10-11T13:35:32.627Z,101640.25
2022-10-11T13:38:08.658Z,101635.39
2022-10-11T13:40:45.349Z,101636.51
2022-10-11T13:43:25.971Z,101637.98
2022-10-11T13:46:00.549Z,101636.64
2022-10-11T13:48:39.811Z,101635.70
2022-10-11T13:51:18.049Z,101636.13
2022-10-11T13:54:02.848Z,101638.73
2022-10-11T13:56:37.654Z,101637.66
2022-10-11T13:59:17.079Z,101638.46
2022-10-11T14:01:49.690Z,101643.23
2022-10-11T14:04:23.278Z,101643.21
2022-10-11T14:07:02.545Z,101645.79
2022-10-11T14:09:38.025Z,101643.42
2022-10-11T14:12:30.220Z,101644.97
2022-10-11T14:15:03.251Z,101646.66
2022-10-11T14:17:46.735Z,101644.46
2022-10-11T14:20:21.955Z,101645.73
2022-10-11T14:22:56.005Z,101649.20
2022-10-11T14:25:27.834Z,101646.63
2022-10-11T14:27:59.804Z,101651.91
2022-10-11T14:30:32.536Z,101647.21
2022-10-11T14:33:04.828Z,101649.17
2022-10-11T14:35:37.155Z,101647.20
2022-10-11T14:38:10.771Z,101646.30
2022-10-11T14:40:42.438Z,101645.90
2022-10-11T14:43:16.906Z,101649.08
2022-10-11T14:45:48.669Z,101651.59
2022-10-11T14:48:43.005Z,101652.02
2022-10-11T14:51:15.914Z,101650.17
2022-10-11T14:53:47.684Z,101650.98
2022-10-11T14:56:21.657Z,101651.73
2022-10-11T14:58:53.802Z,101654.12
2022-10-11T15:01:25.599Z,101654.45
2022-10-11T15:03:57.386Z,101652.44
2022-10-11T15:06:33.172Z,101652.54
2022-10-11T15:09:05.195Z,101655.66
2022-10-11T15:11:39.359Z,101654.16
2022-10-11T15:14:11.161Z,101653.46
2022-10-11T15:16:43.112Z,101657.17
2022-10-11T15:19:17.882Z,101658.05
2022-10-11T15:21:50.305Z,101658.98
2022-10-11T15:24:23.146Z,101658.05
2022-10-11T15:26:55.116Z,101656.67
2022-10-11T15:29:26.937Z,101659.21
2022-10-11T15:31:58.649Z,101659.52
2022-10-11T15:34:30.420Z,101664.66
2022-10-11T15:37:02.145Z,101662.41
2022-10-11T15:39:34.013Z,101666.83
2022-10-11T15:42:05.718Z,101663.91
2022-10-11T15:44:37.543Z,101664.36
2022-10-11T15:47:09.787Z,101666.56
2022-10-11T15:49:41.569Z,101669.05
2022-10-11T15:52:13.360Z,101671.95
2022-10-11T15:54:45.089Z,101673.27
2022-10-11T15:57:18.372Z,101673.05
2022-10-11T15:59:50.129Z,101675.95
2022-10-11T16:02:21.850Z,101674.70
2022-10-11T16:04:55.531Z,101679.02
2022-10-11T16:07:27.318Z,101680.25
2022-10-11T16:09:59.181Z,101678.48
2022-10-11T16:12:31.090Z,101677.21
2022-10-11T16:15:02.984Z,101679.10
2022-10-11T16:17:34.769Z,101682.77
2022-10-11T16:20:13.152Z,101683.66
2022-10-11T16:22:44.955Z,101687.45
2022-10-11T16:25:17.072Z,101689.94
2022-10-11T16:27:49.116Z,101693.06
2022-10-11T16:30:24.389Z,101693.45
2022-10-11T16:32:56.129Z,101697.44
2022-10-11T16:35:32.375Z,101702.45
2022-10-11T16:38:04.613Z,101702.81
2022-10-11T16:40:38.660Z,101705.75
2022-10-11T16:43:11.119Z,101707.84
2022-10-11T16:45:42.893Z,101702.67
2022-10-11T16:48:14.603Z,101704.17
2022-10-11T16:50:48.746Z,101706.36
2022-10-11T16:53:21.846Z,101709.02
2022-10-11T16:55:54.077Z,101707.27
2022-10-11T16:58:25.886Z,101705.65
2022-10-11T17:00:57.658Z,101705.96
2022-10-11T17:03:29.790Z,101707.83
2022-10-11T17:06:01.573Z,101712.27
2022-10-11T17:08:33.721Z,101709.53
2022-10-11T17:11:06.322Z,101716.66
2022-10-11T17:13:38.090Z,101715.80
2022-10-11T17:16:11.946Z,101717.48
2022-10-11T17:18:44.005Z,101721.55
2022-10-11T17:21:19.695Z,101722.73
2022-10-11T17:23:51.515Z,101724.50
2022-10-11T17:26:26.413Z,101727.75
2022-10-11T17:29:00.423Z,101729.25
2022-10-11T17:31:32.885Z,101732.05
2022-10-11T17:34:04.588Z,101734.92
2022-10-11T17:36:36.530Z,101735.28
2022-10-11T17:39:11.166Z,101734.63
2022-10-11T17:41:44.372Z,101734.88
2022-10-11T17:44:18.558Z,101741.52
2022-10-11T17:46:51.066Z,101737.14
2022-10-11T17:49:22.823Z,101737.54
2022-10-11T17:51:55.222Z,101737.70
2022-10-11T17:54:27.121Z,101740.70
2022-10-11T17:56:59.016Z,101743.77
2022-10-11T17:59:32.343Z,101742.42
2022-10-11T18:02:04.025Z,101741.50
2022-10-11T18:04:35.643Z,101743.52
2022-10-11T18:07:07.280Z,101745.07
2022-10-11T18:09:38.838Z,101746.08
2022-10-11T18:12:11.378Z,101747.39
2022-10-11T18:14:43.044Z,101751.02
2022-10-11T18:17:14.655Z,101753.02
2022-10-11T18:19:46.447Z,101754.17
2022-10-11T18:22:18.054Z,101752.34
2022-10-11T18:24:50.708Z,101751.10
2022-10-11T18:27:22.349Z,101749.27
2022-10-11T18:29:53.952Z,101754.44
2022-10-11T18:32:27.170Z,101752.44
2022-10-11T18:34:59.878Z,101751.48
2022-10-11T18:37:31.740Z,101751.55
2022-10-11T18:40:03.829Z,101754.26
2022-10-11T18:42:35.419Z,101752.98
2022-10-11T18:45:10.387Z,101750.13
2022-10-11T18:47:42.004Z,101747.95
2022-10-11T18:50:13.744Z,101753.20
2022-10-11T18:52:48.589Z,101749.84
2022-10-11T18:55:20.734Z,101750.62
2022-10-11T18:57:52.288Z,101751.75
2022-10-11T19:00:40.147Z,101749.79
2022-10-11T19:03:13.016Z,101748.96
2022-10-11T19:05:45.154Z,101748.20
2022-10-11T19:08:17.017Z,101746.56
2022-10-11T19:10:49.640Z,101748.49
2022-10-11T19:13:21.518Z,101751.05
2022-10-11T19:15:53.284Z,101752.55
2022-10-11T19:18:25.762Z,101750.89
2022-10-11T19:21:04.294Z,101749.55
2022-10-11T19:23:39.489Z,101747.91
2022-10-11T19:26:16.170Z,101747.55
2022-10-11T19:28:49.078Z,101747.00
2022-10-11T19:31:20.836Z,101750.40
2022-10-11T19:33:53.726Z,101755.15
2022-10-11T19:36:25.983Z,101756.39
2022-10-11T19:38:58.061Z,101755.36
2022-10-11T19:41:29.794Z,101756.45
2022-10-11T19:44:01.978Z,101757.04
2022-10-11T19:49:26.194Z,101754.27
2022-10-11T19:51:58.579Z,101754.88
2022-10-11T19:54:30.476Z,101753.99
2022-10-11T19:57:02.006Z,101756.71
2022-10-11T19:59:33.632Z,101761.05
2022-10-11T20:02:05.256Z,101766.05
2022-10-11T20:04:52.070Z,101766.27
2022-10-11T20:07:25.461Z,101766.33
2022-10-11T20:09:57.040Z,101767.48
2022-10-11T20:12:29.494Z,101766.11
2022-10-11T20:15:01.284Z,101770.41
2022-10-11T20:17:46.766Z,101767.89
2022-10-11T20:20:23.662Z,101764.73
2022-10-11T20:22:55.619Z,101760.75
2022-10-11T20:25:27.416Z,101763.96
2022-10-11T20:27:58.921Z,101762.70
2022-10-11T20:30:32.259Z,101763.77
2022-10-11T20:33:03.846Z,101764.98
2022-10-11T20:35:35.509Z,101766.73
2022-10-11T20:38:07.081Z,101766.45
2022-10-11T20:40:43.922Z,101763.69
2022-10-11T20:43:15.698Z,101771.55
2022-10-11T20:45:47.845Z,101770.58
2022-10-11T20:48:19.466Z,101769.73
2022-10-11T20:50:52.666Z,101767.11
2022-10-11T20:53:24.495Z,101764.97
2022-10-11T20:55:56.360Z,101764.99
2022-10-11T20:58:27.913Z,101771.45
2022-10-11T21:01:01.143Z,101770.02
2022-10-11T21:03:32.688Z,101767.86
2022-10-11T21:06:05.055Z,101768.92
2022-10-11T21:08:37.010Z,101770.83
2022-10-11T21:11:10.763Z,101770.64
2022-10-11T21:13:43.217Z,101775.52
2022-10-11T21:16:17.090Z,101769.13
2022-10-11T21:18:53.032Z,101769.64
2022-10-11T21:21:26.102Z,101766.10
2022-10-11T21:23:58.445Z,101766.50
2022-10-11T21:26:30.804Z,101766.89
2022-10-11T21:29:04.130Z,101767.57
2022-10-11T21:31:37.086Z,101772.23
2022-10-11T21:34:08.660Z,101771.42
2022-10-11T21:36:40.283Z,101777.10
2022-10-11T21:39:11.853Z,101778.73
2022-10-11T21:41:47.553Z,101777.17
2022-10-11T21:44:19.097Z,101777.55
2022-10-11T21:47:07.629Z,101778.16
2022-10-11T21:49:44.408Z,101776.62
2022-10-11T21:52:18.199Z,101776.17
2022-10-11T21:54:49.731Z,101777.48
2022-10-11T21:57:21.332Z,101777.31
2022-10-11T21:59:52.888Z,101782.55
2022-10-11T22:02:25.269Z,101782.61
2022-10-11T22:04:56.823Z,101786.53
2022-10-11T22:07:28.546Z,101780.83
2022-10-11T22:10:00.167Z,101780.29
2022-10-11T22:12:33.494Z,101778.48
2022-10-11T22:15:05.526Z,101786.89
2022-10-11T22:17:37.171Z,101787.40
2022-10-11T22:20:14.595Z,101782.83
2022-10-11T22:22:50.098Z,101788.73
2022-10-11T22:25:21.679Z,101783.02
2022-10-11T22:27:53.296Z,101780.55
2022-10-11T22:30:24.942Z,101775.92
2022-10-11T22:32:58.233Z,101775.34
2022-10-11T22:35:32.417Z,101772.66
2022-10-11T22:38:08.442Z,101771.54
2022-10-11T22:40:43.271Z,101773.98
2022-10-11T22:43:15.746Z,101774.54
2022-10-11T22:45:48.134Z,101774.52
2022-10-11T22:48:19.763Z,101776.77
2022-10-11T22:50:51.695Z,101783.44
2022-10-11T22:53:26.555Z,101780.39
2022-10-11T22:55:58.112Z,101778.52
2022-10-11T22:58:29.717Z,101774.01
2022-10-11T23:01:09.113Z,101778.13
2022-10-11T23:03:42.539Z,101781.39
2022-10-11T23:06:14.141Z,101785.41
2022-10-11T23:08:46.574Z,101789.41
2022-10-11T23:11:18.239Z,101789.11
2022-10-11T23:13:51.435Z,101790.86
2022-10-11T23:16:23.028Z,101790.67
2022-10-11T23:18:56.226Z,101790.92
2022-10-11T23:21:27.796Z,101793.52
2022-10-11T23:24:00.308Z,101791.27
2022-10-11T23:26:32.059Z,101791.33
2022-10-11T23:29:04.766Z,101792.09
2022-10-11T23:31:36.486Z,101791.16
2022-10-11T23:34:10.115Z,101792.98
2022-10-11T23:36:41.687Z,101792.58
2022-10-11T23:39:16.148Z,101797.48
2022-10-11T23:41:47.818Z,101794.27
2022-10-11T23:44:20.272Z,101792.08
2022-10-11T23:46:52.233Z,101790.50
2022-10-11T23:49:27.163Z,101790.84
2022-10-11T23:51:59.075Z,101792.30
2022-10-11T23:54:31.544Z,101793.17
2022-10-11T23:57:03.060Z,101793.88
2022-10-11T23:59:34.703Z,101791.81
